createdAt,value
2023-08-14T00:03:57.081Z,8.90
2023-08-14T00:08:59.605Z,7.30
2023-08-14T00:14:02.960Z,8.40
2023-08-14T00:19:05.788Z,9.90
2023-08-14T00:24:09.032Z,11.30
2023-08-14T00:29:12.154Z,11.40
2023-08-14T00:34:15.279Z,18.00
2023-08-14T00:39:17.781Z,17.30
2023-08-14T00:44:20.260Z,11.00
2023-08-14T00:49:23.290Z,10.40
2023-08-14T00:54:28.725Z,7.90
2023-08-14T00:59:33.600Z,7.70
2023-08-14T01:04:36.030Z,11.00
2023-08-14T01:09:38.829Z,8.40
2023-08-14T01:14:43.105Z,11.80
2023-08-14T01:19:52.578Z,7.90
2023-08-14T01:25:01.180Z,9.00
2023-08-14T01:30:04.665Z,8.80
2023-08-14T01:35:07.971Z,8.00
2023-08-14T01:40:40.965Z,13.00
2023-08-14T01:45:43.582Z,7.90
2023-08-14T01:50:47.946Z,7.70
2023-08-14T01:55:50.774Z,8.20
2023-08-14T02:00:53.303Z,10.40
2023-08-14T02:05:55.684Z,11.20
2023-08-14T02:10:58.800Z,14.10
2023-08-14T02:16:03.680Z,10.60
2023-08-14T02:21:06.207Z,11.90
2023-08-14T02:26:09.752Z,10.30
2023-08-14T02:36:15.466Z,8.70
2023-08-14T02:46:21.741Z,9.00
2023-08-14T02:56:29.126Z,11.30
2023-08-14T03:01:31.681Z,8.80
2023-08-14T03:06:34.194Z,10.50
2023-08-14T03:11:36.635Z,10.40
2023-08-14T03:16:39.201Z,10.60
2023-08-14T03:21:42.828Z,11.30
2023-08-14T03:26:49.834Z,13.90
2023-08-14T03:31:53.905Z,17.60
2023-08-14T03:36:56.376Z,16.60
2023-08-14T03:41:59.530Z,68.90
2023-08-14T03:47:02.736Z,67.40
2023-08-14T03:52:06.029Z,53.00
2023-08-14T03:57:08.606Z,43.90
2023-08-14T04:02:11.080Z,32.10
2023-08-14T04:07:13.621Z,22.70
2023-08-14T04:22:21.640Z,17.50
2023-08-14T04:27:24.225Z,17.00
2023-08-14T04:32:27.038Z,13.00
2023-08-14T04:37:29.514Z,15.90
2023-08-14T04:42:34.912Z,20.00
2023-08-14T04:47:37.377Z,16.00
2023-08-14T04:52:40.630Z,12.10
2023-08-14T04:57:43.506Z,15.00
2023-08-14T05:02:46.462Z,11.50
2023-08-14T05:07:49.114Z,15.40
2023-08-14T05:12:51.729Z,12.50
2023-08-14T05:17:54.880Z,13.10
2023-08-14T05:22:58.025Z,13.50
2023-08-14T05:28:10.775Z,12.40
2023-08-14T05:33:14.596Z,20.30
2023-08-14T05:38:17.856Z,13.90
2023-08-14T05:43:21.104Z,15.70
2023-08-14T05:48:24.366Z,14.40
2023-08-14T05:53:27.696Z,14.70
2023-08-14T05:58:35.876Z,15.40
2023-08-14T06:03:45.304Z,11.40
2023-08-14T06:08:48.356Z,17.00
2023-08-14T06:13:50.937Z,13.40
2023-08-14T06:18:54.525Z,14.90
2023-08-14T06:23:58.497Z,13.80
2023-08-14T06:29:01.607Z,17.60
2023-08-14T06:34:04.480Z,18.10
2023-08-14T06:39:07.661Z,17.70
2023-08-14T06:44:10.501Z,18.90
2023-08-14T06:49:13.894Z,17.30
2023-08-14T06:54:17.214Z,14.50
2023-08-14T06:59:20.303Z,13.30
2023-08-14T07:04:28.013Z,11.80
2023-08-14T07:09:30.600Z,14.70
2023-08-14T07:14:33.816Z,14.80
2023-08-14T07:19:37.284Z,11.80
2023-08-14T07:24:45.662Z,11.20
2023-08-14T07:29:48.536Z,13.90
2023-08-14T07:34:51.330Z,11.40
2023-08-14T07:39:53.872Z,17.60
2023-08-14T07:44:56.716Z,13.70
2023-08-14T07:55:04.025Z,11.40
2023-08-14T08:00:08.973Z,9.80
2023-08-14T08:05:11.758Z,12.50
2023-08-14T08:10:14.960Z,10.00
2023-08-14T08:15:17.811Z,15.20
2023-08-14T08:20:20.391Z,14.20
2023-08-14T08:25:23.029Z,12.70
2023-08-14T08:30:25.715Z,14.50
2023-08-14T08:35:28.192Z,10.10
2023-08-14T08:40:34.438Z,11.20
2023-08-14T08:45:39.351Z,15.30
2023-08-14T08:50:45.595Z,13.30
2023-08-14T08:55:52.319Z,13.60
2023-08-14T09:00:57.583Z,12.90
2023-08-14T09:06:00.960Z,9.30
2023-08-14T09:11:03.567Z,14.10
2023-08-14T09:16:06.192Z,18.20
2023-08-14T09:21:21.939Z,18.40
2023-08-14T09:26:24.783Z,12.10
2023-08-14T09:31:32.366Z,9.10
2023-08-14T09:36:38.129Z,10.40
2023-08-14T09:41:40.609Z,8.30
2023-08-14T09:46:45.573Z,5.70
2023-08-14T09:51:58.705Z,6.30
2023-08-14T09:57:08.521Z,14.40
2023-08-14T10:02:22.614Z,9.00
2023-08-14T10:07:27.313Z,8.60
2023-08-14T10:12:33.760Z,8.40
2023-08-14T10:17:45.415Z,6.80
2023-08-14T10:22:49.042Z,6.50
2023-08-14T10:27:53.132Z,8.20
2023-08-14T10:32:57.081Z,10.90
2023-08-14T10:38:09.520Z,9.20
2023-08-14T10:43:13.668Z,7.20
2023-08-14T10:48:19.005Z,6.40
2023-08-14T10:53:24.035Z,6.80
2023-08-14T10:58:32.732Z,6.10
2023-08-14T11:09:05.690Z,5.10
2023-08-14T11:14:08.609Z,4.80
2023-08-14T11:19:12.364Z,4.40
2023-08-14T11:24:15.361Z,4.30
2023-08-14T11:29:17.850Z,6.00
2023-08-14T11:34:22.467Z,5.90
2023-08-14T11:39:25.419Z,4.90
2023-08-14T11:44:29.090Z,4.90
2023-08-14T11:49:32.606Z,5.40
2023-08-14T11:54:36.829Z,4.00
2023-08-14T11:59:39.855Z,5.90
2023-08-14T12:09:45.659Z,9.20
2023-08-14T12:14:52.650Z,5.00
2023-08-14T12:19:58.918Z,8.70
2023-08-14T12:25:05.826Z,16.20
2023-08-14T12:30:11.769Z,7.00
2023-08-14T12:35:14.614Z,5.80
2023-08-14T12:45:19.362Z,9.40
2023-08-14T12:50:21.860Z,6.00
2023-08-14T12:55:24.706Z,7.50
2023-08-14T13:00:32.235Z,4.70
2023-08-14T13:05:36.321Z,8.40
2023-08-14T13:10:38.802Z,7.90
2023-08-14T13:15:41.339Z,6.30
2023-08-14T13:20:43.836Z,9.20
2023-08-14T13:25:46.339Z,25.50
2023-08-14T13:30:51.442Z,14.90
2023-08-14T13:35:54.298Z,9.20
2023-08-14T13:40:57.070Z,6.80
2023-08-14T13:45:59.645Z,8.00
2023-08-14T13:51:02.323Z,5.50
2023-08-14T13:56:06.215Z,5.90
2023-08-14T14:01:09.495Z,4.80
2023-08-14T14:06:12.293Z,7.00
2023-08-14T14:11:14.790Z,7.00
2023-08-14T14:16:23.921Z,7.30
2023-08-14T14:21:26.416Z,7.30
2023-08-14T14:26:32.014Z,11.10
2023-08-14T14:31:36.682Z,7.90
2023-08-14T14:36:39.484Z,14.30
2023-08-14T14:41:41.983Z,10.90
2023-08-14T14:46:44.408Z,12.50
2023-08-14T14:51:46.850Z,8.50
2023-08-14T14:56:52.045Z,12.00
2023-08-14T15:01:54.530Z,11.90
2023-08-14T15:06:57.311Z,8.70
2023-08-14T15:12:00.584Z,9.00
2023-08-14T15:17:03.093Z,8.90
2023-08-14T15:27:08.067Z,13.00
2023-08-14T15:32:11.262Z,8.80
2023-08-14T15:37:13.874Z,8.40
2023-08-14T15:42:16.350Z,9.30
2023-08-14T15:47:20.084Z,7.40
2023-08-14T15:52:29.399Z,13.40
2023-08-14T15:57:31.936Z,10.50
2023-08-14T16:02:35.848Z,10.40
2023-08-14T16:07:38.789Z,9.40
2023-08-14T16:12:41.511Z,13.10
2023-08-14T16:17:44.222Z,10.80
2023-08-14T16:22:49.419Z,9.70
2023-08-14T16:27:54.963Z,8.20
2023-08-14T16:32:58.087Z,8.70
2023-08-14T16:38:00.665Z,9.40
2023-08-14T16:43:04.290Z,7.50
2023-08-14T16:48:11.503Z,18.70
2023-08-14T16:53:14.674Z,9.70
2023-08-14T16:58:18.905Z,12.00
2023-08-14T17:03:21.814Z,11.90
2023-08-14T17:08:24.448Z,10.00
2023-08-14T17:13:27.742Z,10.20
2023-08-14T17:18:30.848Z,12.20
2023-08-14T17:23:33.484Z,11.10
2023-08-14T17:33:41.183Z,11.10
2023-08-14T17:43:51.208Z,13.40
2023-08-14T17:48:54.400Z,10.80
2023-08-14T17:53:56.942Z,11.70
2023-08-14T17:59:00.563Z,9.80
2023-08-14T18:04:03.161Z,22.80
2023-08-14T18:09:08.878Z,13.00
2023-08-14T18:14:11.398Z,17.10
2023-08-14T18:24:21.908Z,15.60
2023-08-14T18:29:24.498Z,15.70
2023-08-14T18:34:29.970Z,13.20
2023-08-14T18:39:32.603Z,10.90
2023-08-14T18:44:35.105Z,11.00
2023-08-14T18:49:38.059Z,14.50
2023-08-14T18:54:43.104Z,15.50
2023-08-14T18:59:48.855Z,13.90
2023-08-14T19:04:51.528Z,17.20
2023-08-14T19:09:56.712Z,12.70
2023-08-14T19:15:00.789Z,12.50
2023-08-14T19:20:03.588Z,17.00
2023-08-14T19:25:09.321Z,16.80
2023-08-14T19:30:13.204Z,18.60
2023-08-14T19:35:22.784Z,15.50
2023-08-14T19:40:25.559Z,22.30
2023-08-14T19:45:29.140Z,13.90
2023-08-14T19:50:33.953Z,18.20
2023-08-14T19:55:41.025Z,20.00
2023-08-14T20:00:43.572Z,15.50
2023-08-14T20:05:49.165Z,12.70
2023-08-14T20:10:52.114Z,12.10
2023-08-14T20:15:54.682Z,14.00
2023-08-14T20:20:57.514Z,15.10
2023-08-14T20:31:02.543Z,11.60
2023-08-14T20:36:05.339Z,17.60
2023-08-14T20:41:07.900Z,14.50
2023-08-14T20:46:10.377Z,14.80
2023-08-14T20:51:13.238Z,14.20
2023-08-14T20:56:15.762Z,13.30
2023-08-14T21:01:18.956Z,12.60
2023-08-14T21:06:22.134Z,10.80
2023-08-14T21:11:24.637Z,11.90
2023-08-14T21:16:30.525Z,13.30
2023-08-14T21:21:36.301Z,12.20
2023-08-14T21:26:39.687Z,10.10
2023-08-14T21:31:42.747Z,15.80
2023-08-14T21:36:45.411Z,14.90
2023-08-14T21:41:48.930Z,10.50
2023-08-14T21:46:51.593Z,11.10
2023-08-14T21:51:57.503Z,10.90
2023-08-14T21:57:01.346Z,11.30
2023-08-14T22:02:03.999Z,10.90
2023-08-14T22:07:07.175Z,12.90
2023-08-14T22:12:10.243Z,14.80
2023-08-14T22:17:15.405Z,16.50
2023-08-14T22:22:18.470Z,13.60
2023-08-14T22:27:21.179Z,14.50
2023-08-14T22:32:23.917Z,9.80
2023-08-14T22:37:29.199Z,9.50
2023-08-14T22:42:31.812Z,11.50
2023-08-14T22:47:37.573Z,12.90
2023-08-14T22:52:41.497Z,12.60
2023-08-14T22:57:44.706Z,14.60
2023-08-14T23:02:47.221Z,10.80
2023-08-14T23:08:01.073Z,9.90
2023-08-14T23:13:05.887Z,13.90
2023-08-14T23:18:09.095Z,12.90
2023-08-14T23:23:12.241Z,26.30
2023-08-14T23:28:15.451Z,11.10
2023-08-14T23:33:17.969Z,13.30
2023-08-14T23:38:23.005Z,13.60
2023-08-14T23:43:25.501Z,12.50
2023-08-14T23:48:28.877Z,11.90
2023-08-14T23:53:39.085Z,11.20
2023-08-14T23:58:41.520Z,10.30
